createdAt,value
2019-03-28T00:01:56.841Z,22.85
2019-03-28T00:04:28.482Z,21.90
2019-03-28T00:07:00.028Z,24.30
2019-03-28T00:09:32.385Z,26.12
2019-03-28T00:12:04.058Z,23.42
2019-03-28T00:14:35.637Z,21.20
2019-03-28T00:17:07.476Z,21.73
2019-03-28T00:19:39.237Z,21.52
2019-03-28T00:22:11.002Z,22.22
2019-03-28T00:25:20.175Z,19.98
2019-03-28T00:27:52.097Z,25.10
2019-03-28T00:30:24.058Z,29.12
2019-03-28T00:32:56.033Z,30.55
2019-03-28T00:35:45.868Z,26.95
2019-03-28T00:38:17.570Z,28.60
2019-03-28T00:40:49.231Z,24.40
2019-03-28T00:43:20.987Z,35.48
2019-03-28T00:45:52.950Z,34.75
2019-03-28T00:48:24.505Z,32.30
2019-03-28T00:50:56.467Z,35.68
2019-03-28T00:53:28.231Z,35.33
2019-03-28T00:55:59.793Z,36.93
2019-03-28T00:58:31.643Z,37.42
2019-03-28T01:01:03.817Z,34.27
2019-03-28T01:03:36.342Z,30.20
2019-03-28T01:06:08.539Z,23.50
2019-03-28T01:08:40.423Z,24.32
2019-03-28T01:11:12.306Z,22.27
2019-03-28T01:13:43.847Z,25.25
2019-03-28T01:20:50.128Z,24.43
2019-03-28T01:23:40.015Z,26.25
2019-03-28T01:26:11.752Z,25.52
2019-03-28T01:28:43.532Z,26.97
2019-03-28T01:31:34.565Z,23.77
2019-03-28T01:34:06.487Z,23.32
2019-03-28T01:36:38.522Z,29.15
2019-03-28T01:39:10.191Z,30.48
2019-03-28T01:41:42.084Z,27.52
2019-03-28T01:44:13.944Z,26.52
2019-03-28T01:46:45.685Z,31.62
2019-03-28T01:49:17.479Z,23.52
2019-03-28T01:51:49.457Z,23.30
2019-03-28T01:54:21.217Z,25.62
2019-03-28T01:56:52.842Z,23.50
2019-03-28T01:59:24.526Z,33.35
2019-03-28T02:01:56.890Z,26.50
2019-03-28T02:04:28.658Z,22.90
2019-03-28T02:07:00.314Z,20.65
2019-03-28T02:09:32.393Z,23.20
2019-03-28T02:12:04.247Z,23.12
2019-03-28T02:14:36.000Z,24.32
2019-03-28T02:17:07.944Z,21.52
2019-03-28T02:19:39.730Z,19.73
2019-03-28T02:22:11.747Z,18.15
2019-03-28T02:24:43.257Z,22.52
2019-03-28T02:27:23.953Z,19.07
2019-03-28T02:29:47.998Z,19.73
2019-03-28T02:32:19.901Z,20.57
2019-03-28T02:34:51.621Z,20.82
2019-03-28T02:37:23.281Z,23.45
2019-03-28T02:39:55.138Z,20.60
2019-03-28T02:42:27.779Z,17.67
2019-03-28T02:45:00.661Z,24.50
2019-03-28T02:47:32.271Z,18.87
2019-03-28T02:50:04.610Z,15.98
2019-03-28T02:52:36.545Z,21.80
2019-03-28T02:55:42.774Z,23.15
2019-03-28T02:58:14.329Z,17.17
2019-03-28T03:00:46.214Z,19.35
2019-03-28T03:03:18.559Z,17.00
2019-03-28T03:05:50.523Z,16.35
2019-03-28T03:08:22.091Z,16.48
2019-03-28T03:10:53.739Z,16.12
2019-03-28T03:13:25.587Z,17.60
2019-03-28T03:15:57.368Z,16.52
2019-03-28T03:18:29.425Z,14.85
2019-03-28T03:21:01.288Z,16.42
2019-03-28T03:23:33.038Z,20.82
2019-03-28T03:26:05.845Z,18.20
2019-03-28T03:28:37.603Z,18.48
2019-03-28T03:31:09.345Z,17.20
2019-03-28T03:33:41.303Z,16.75
2019-03-28T03:36:12.874Z,18.57
2019-03-28T03:38:44.631Z,14.33
2019-03-28T03:41:16.578Z,20.32
2019-03-28T03:43:49.160Z,17.35
2019-03-28T03:46:21.571Z,18.70
2019-03-28T03:48:53.304Z,18.48
2019-03-28T03:51:25.065Z,13.13
2019-03-28T03:53:57.715Z,21.40
2019-03-28T03:56:31.011Z,22.10
2019-03-28T03:59:02.603Z,18.35
2019-03-28T04:01:53.370Z,21.33
2019-03-28T04:04:26.902Z,15.80
2019-03-28T04:06:58.849Z,16.75
2019-03-28T04:09:30.689Z,16.80
2019-03-28T04:12:02.622Z,17.07
2019-03-28T04:15:17.843Z,15.15
2019-03-28T04:17:49.522Z,15.50
2019-03-28T04:20:21.467Z,16.62
2019-03-28T04:22:53.267Z,14.38
2019-03-28T04:25:25.008Z,17.25
2019-03-28T04:27:56.648Z,13.62
2019-03-28T04:30:28.625Z,17.15
2019-03-28T04:33:00.185Z,16.52
2019-03-28T04:35:32.143Z,13.72
2019-03-28T04:38:03.715Z,20.52
2019-03-28T04:40:36.354Z,17.02
2019-03-28T04:43:09.025Z,14.65
2019-03-28T04:45:40.733Z,15.65
2019-03-28T04:48:15.903Z,13.62
2019-03-28T04:50:47.875Z,21.35
2019-03-28T04:53:19.571Z,16.75
2019-03-28T04:55:51.707Z,15.45
2019-03-28T04:58:24.226Z,16.25
2019-03-28T05:00:55.994Z,14.85
2019-03-28T05:03:29.985Z,12.58
2019-03-28T05:06:01.884Z,13.03
2019-03-28T05:08:33.819Z,16.32
2019-03-28T05:11:06.289Z,15.55
2019-03-28T05:13:38.062Z,11.75
2019-03-28T05:16:09.730Z,14.53
2019-03-28T05:18:41.677Z,13.08
2019-03-28T05:21:13.438Z,16.70
2019-03-28T05:23:45.307Z,13.50
2019-03-28T05:26:17.882Z,15.88
2019-03-28T05:28:57.305Z,13.68
2019-03-28T05:31:23.148Z,16.12
2019-03-28T05:33:56.167Z,12.78
2019-03-28T05:36:27.894Z,13.80
2019-03-28T05:38:59.865Z,11.90
2019-03-28T05:41:31.519Z,16.50
2019-03-28T05:44:03.273Z,13.00
2019-03-28T05:46:35.227Z,18.00
2019-03-28T05:49:06.802Z,16.20
2019-03-28T05:51:38.441Z,15.70
2019-03-28T05:54:10.410Z,16.23
2019-03-28T05:56:43.866Z,14.65
2019-03-28T05:59:15.579Z,13.65
2019-03-28T06:01:47.139Z,14.25
2019-03-28T06:04:19.088Z,15.18
2019-03-28T06:06:52.626Z,13.93
2019-03-28T06:09:24.935Z,16.55
2019-03-28T06:11:57.001Z,18.10
2019-03-28T06:14:28.695Z,16.77
2019-03-28T06:17:01.568Z,16.23
2019-03-28T06:19:33.510Z,18.70
2019-03-28T06:22:05.397Z,20.55
2019-03-28T06:24:36.955Z,15.38
2019-03-28T06:27:08.715Z,19.77
2019-03-28T06:29:40.677Z,15.53
2019-03-28T06:32:12.343Z,16.97
2019-03-28T06:34:49.630Z,17.82
2019-03-28T06:37:21.398Z,22.50
2019-03-28T06:39:53.734Z,21.05
2019-03-28T06:42:35.321Z,19.87
2019-03-28T06:45:08.331Z,14.28
2019-03-28T06:47:42.858Z,16.80
2019-03-28T06:50:14.826Z,15.90
2019-03-28T06:52:46.484Z,16.02
2019-03-28T06:55:18.641Z,14.25
2019-03-28T06:57:50.794Z,13.72
2019-03-28T07:00:22.586Z,18.55
2019-03-28T07:02:54.156Z,16.10
2019-03-28T07:05:25.912Z,17.23
2019-03-28T07:07:58.995Z,16.80
2019-03-28T07:10:31.419Z,17.40
2019-03-28T07:13:04.224Z,16.15
2019-03-28T07:15:36.876Z,17.42
2019-03-28T07:18:09.590Z,18.27
2019-03-28T07:20:42.462Z,15.93
2019-03-28T07:23:14.148Z,19.45
2019-03-28T07:25:47.002Z,14.90
2019-03-28T07:28:19.332Z,16.87
2019-03-28T07:30:52.881Z,15.23
2019-03-28T07:33:29.966Z,15.57
2019-03-28T07:36:02.822Z,30.27
2019-03-28T07:38:36.096Z,17.67
2019-03-28T07:41:07.646Z,16.32
2019-03-28T07:43:40.191Z,25.88
2019-03-28T07:46:12.164Z,21.68
2019-03-28T07:48:44.858Z,17.95
2019-03-28T07:51:17.525Z,21.05
2019-03-28T07:53:50.167Z,19.17
2019-03-28T07:56:21.976Z,18.60
2019-03-28T07:58:54.097Z,21.68
2019-03-28T08:01:25.714Z,27.70
2019-03-28T08:03:58.537Z,18.95
2019-03-28T08:06:30.517Z,21.37
2019-03-28T08:09:02.726Z,16.00
2019-03-28T08:11:34.479Z,20.23
2019-03-28T08:14:06.560Z,19.30
2019-03-28T08:16:40.324Z,16.23
2019-03-28T08:19:12.118Z,22.00
2019-03-28T08:21:44.594Z,20.37
2019-03-28T08:24:16.831Z,19.70
2019-03-28T08:26:48.352Z,15.72
2019-03-28T08:29:20.076Z,15.85
2019-03-28T08:31:54.035Z,16.10
2019-03-28T08:34:25.883Z,19.25
2019-03-28T08:36:58.287Z,18.23
2019-03-28T08:39:30.811Z,16.37
2019-03-28T08:42:02.569Z,18.37
2019-03-28T08:44:36.032Z,15.58
2019-03-28T08:47:07.722Z,18.45
2019-03-28T08:49:39.644Z,13.93
2019-03-28T08:52:11.977Z,15.05
2019-03-28T08:54:44.425Z,13.43
2019-03-28T08:57:16.900Z,12.70
2019-03-28T08:59:51.176Z,22.80
2019-03-28T09:02:23.189Z,13.62
2019-03-28T09:04:54.780Z,13.48
2019-03-28T09:07:26.704Z,13.22
2019-03-28T09:09:58.785Z,10.95
2019-03-28T09:17:12.555Z,12.23
2019-03-28T09:19:45.487Z,12.90
2019-03-28T09:22:17.608Z,12.58
2019-03-28T09:25:10.235Z,13.43
2019-03-28T09:27:42.212Z,15.70
2019-03-28T09:30:15.745Z,15.78
2019-03-28T09:32:47.789Z,16.37
2019-03-28T09:35:31.461Z,20.62
2019-03-28T09:38:03.213Z,17.07
2019-03-28T09:40:35.171Z,21.10
2019-03-28T09:43:08.294Z,15.58
2019-03-28T09:45:40.219Z,15.55
2019-03-28T09:48:12.112Z,18.23
2019-03-28T09:50:45.516Z,15.93
2019-03-28T09:53:19.885Z,17.60
2019-03-28T09:55:52.158Z,14.75
2019-03-28T09:58:24.143Z,14.45
2019-03-28T10:01:03.213Z,17.27
2019-03-28T10:03:31.653Z,14.80
2019-03-28T10:06:03.636Z,21.23
2019-03-28T10:08:35.667Z,14.53
2019-03-28T10:11:09.861Z,17.05
2019-03-28T10:13:41.684Z,16.77
2019-03-28T10:16:13.609Z,23.07
2019-03-28T10:18:46.800Z,15.50
2019-03-28T10:21:19.501Z,17.95
2019-03-28T10:24:02.280Z,11.65
2019-03-28T10:26:34.041Z,15.98
2019-03-28T10:29:06.137Z,13.85
2019-03-28T10:31:57.633Z,17.07
2019-03-28T10:34:29.468Z,16.65
2019-03-28T10:37:02.193Z,13.50
2019-03-28T10:39:34.176Z,16.87
2019-03-28T10:42:05.906Z,14.98
2019-03-28T10:44:37.779Z,15.63
2019-03-28T10:47:09.649Z,14.98
2019-03-28T10:49:41.572Z,19.25
2019-03-28T10:52:13.599Z,21.62
2019-03-28T10:54:45.669Z,15.58
2019-03-28T10:57:29.331Z,18.10
2019-03-28T10:59:51.630Z,19.75
2019-03-28T11:02:23.990Z,16.35
2019-03-28T11:04:57.094Z,18.37
2019-03-28T11:07:29.821Z,16.48
2019-03-28T11:10:01.738Z,13.78
2019-03-28T11:12:34.721Z,14.78
2019-03-28T11:15:07.492Z,15.65
2019-03-28T11:17:39.189Z,19.40
2019-03-28T11:20:11.626Z,17.67
2019-03-28T11:22:44.001Z,17.32
2019-03-28T11:25:15.983Z,18.85
2019-03-28T11:27:49.539Z,20.90
2019-03-28T11:30:21.941Z,13.25
2019-03-28T11:32:53.866Z,19.05
2019-03-28T11:35:26.921Z,18.98
2019-03-28T11:37:58.578Z,16.25
2019-03-28T11:40:30.428Z,21.87
2019-03-28T11:43:02.683Z,14.65
2019-03-28T11:45:34.686Z,17.77
2019-03-28T11:48:06.591Z,15.48
2019-03-28T11:50:38.500Z,16.17
2019-03-28T11:53:10.644Z,16.52
2019-03-28T11:55:42.429Z,19.35
2019-03-28T11:58:14.536Z,17.05
2019-03-28T12:00:46.436Z,17.05
2019-03-28T12:03:18.519Z,18.23
2019-03-28T12:05:53.003Z,18.23
2019-03-28T12:08:24.845Z,19.70
2019-03-28T12:10:56.773Z,19.00
2019-03-28T12:13:28.911Z,18.60
2019-03-28T12:16:00.690Z,22.70
2019-03-28T12:18:32.652Z,20.65
2019-03-28T12:21:04.522Z,17.95
2019-03-28T12:23:37.254Z,22.82
2019-03-28T12:26:09.559Z,16.63
2019-03-28T12:28:41.331Z,19.82
2019-03-28T12:31:13.077Z,23.27
2019-03-28T12:33:46.226Z,18.62
2019-03-28T12:36:18.739Z,21.65
2019-03-28T12:38:53.320Z,16.48
2019-03-28T12:41:24.943Z,14.80
2019-03-28T12:43:57.199Z,19.15
2019-03-28T12:46:29.980Z,19.60
2019-03-28T12:49:04.416Z,18.37
2019-03-28T12:51:35.984Z,18.35
2019-03-28T12:54:09.990Z,16.48
2019-03-28T12:56:41.833Z,21.75
2019-03-28T12:59:14.642Z,21.75
2019-03-28T13:01:46.481Z,25.48
2019-03-28T13:04:30.561Z,15.72
2019-03-28T13:07:03.308Z,19.35
2019-03-28T13:09:36.307Z,20.88
2019-03-28T13:12:08.154Z,20.85
2019-03-28T13:14:41.409Z,24.35
2019-03-28T13:17:13.212Z,15.93
2019-03-28T13:19:45.098Z,22.22
2019-03-28T13:22:16.849Z,19.07
2019-03-28T13:24:54.002Z,15.93
2019-03-28T13:27:26.774Z,17.45
2019-03-28T13:30:00.582Z,17.95
2019-03-28T13:32:41.765Z,18.07
2019-03-28T13:35:24.054Z,19.02
2019-03-28T13:37:57.137Z,21.85
2019-03-28T13:40:29.467Z,23.60
2019-03-28T13:43:01.366Z,16.42
2019-03-28T13:45:33.267Z,18.48
2019-03-28T13:48:05.823Z,17.57
2019-03-28T13:50:42.542Z,19.57
2019-03-28T13:53:16.955Z,20.77
2019-03-28T13:55:52.131Z,20.12
2019-03-28T13:58:24.766Z,21.90
2019-03-28T14:00:56.618Z,17.23
2019-03-28T14:03:30.284Z,17.05
2019-03-28T14:06:05.935Z,15.03
2019-03-28T14:08:51.135Z,18.70
2019-03-28T14:11:23.010Z,22.03
2019-03-28T14:14:01.790Z,20.20
2019-03-28T14:16:33.988Z,14.35
2019-03-28T14:19:07.684Z,16.02
2019-03-28T14:21:45.268Z,17.23
2019-03-28T14:24:22.762Z,16.80
2019-03-28T14:26:54.635Z,15.20
2019-03-28T14:29:33.309Z,18.87
2019-03-28T14:32:17.463Z,19.62
2019-03-28T14:34:49.088Z,19.80
2019-03-28T14:37:20.937Z,15.68
2019-03-28T14:40:13.753Z,15.63
2019-03-28T14:42:50.413Z,17.80
2019-03-28T14:45:29.292Z,18.27
2019-03-28T14:48:01.965Z,18.37
2019-03-28T14:50:42.130Z,17.15
2019-03-28T14:53:14.767Z,17.98
2019-03-28T14:55:47.927Z,19.12
2019-03-28T14:58:22.967Z,18.00
2019-03-28T15:01:03.881Z,19.57
2019-03-28T15:03:38.487Z,20.88
2019-03-28T15:06:13.036Z,16.97
2019-03-28T15:08:46.424Z,18.85
2019-03-28T15:11:18.133Z,19.27
2019-03-28T15:13:50.034Z,20.35
2019-03-28T15:16:24.228Z,18.60
2019-03-28T15:18:59.829Z,20.27
2019-03-28T15:21:31.612Z,18.02
2019-03-28T15:24:05.392Z,17.92
2019-03-28T15:26:37.320Z,20.72
2019-03-28T15:29:09.146Z,21.12
2019-03-28T15:31:40.932Z,19.20
2019-03-28T15:34:13.900Z,24.07
2019-03-28T15:36:45.698Z,17.55
2019-03-28T15:39:19.902Z,18.57
2019-03-28T15:41:51.444Z,21.35
2019-03-28T15:44:23.218Z,17.12
2019-03-28T15:46:55.556Z,18.57
2019-03-28T15:49:27.889Z,17.57
2019-03-28T15:52:02.996Z,16.80
2019-03-28T15:54:34.459Z,17.98
2019-03-28T15:57:10.149Z,16.93
2019-03-28T15:59:50.944Z,17.82
2019-03-28T16:02:22.834Z,19.27
2019-03-28T16:04:55.711Z,17.45
2019-03-28T16:07:29.536Z,17.65
2019-03-28T16:10:04.440Z,16.45
2019-03-28T16:12:36.228Z,18.45
2019-03-28T16:15:09.319Z,20.40
2019-03-28T16:17:41.234Z,16.57
2019-03-28T16:20:13.732Z,14.05
2019-03-28T16:22:47.150Z,17.55
2019-03-28T16:25:43.124Z,21.05
2019-03-28T16:28:10.968Z,19.40
2019-03-28T16:30:43.981Z,19.07
2019-03-28T16:33:41.932Z,18.48
2019-03-28T16:36:13.551Z,19.73
2019-03-28T16:38:46.048Z,20.97
2019-03-28T16:41:19.408Z,17.98
2019-03-28T16:43:51.368Z,15.32
2019-03-28T16:46:23.122Z,17.77
2019-03-28T16:49:14.565Z,20.00
2019-03-28T16:51:46.221Z,17.82
2019-03-28T16:55:10.215Z,17.32
2019-03-28T16:57:41.951Z,19.27
2019-03-28T17:00:17.203Z,15.93
2019-03-28T17:02:48.789Z,17.20
2019-03-28T17:05:21.740Z,18.85
2019-03-28T17:07:53.746Z,16.82
2019-03-28T17:10:46.986Z,19.82
2019-03-28T17:13:19.144Z,17.35
2019-03-28T17:15:51.158Z,19.65
2019-03-28T17:18:23.391Z,15.32
2019-03-28T17:20:56.372Z,21.37
2019-03-28T17:23:28.207Z,18.85
2019-03-28T17:25:59.893Z,19.02
2019-03-28T17:28:31.540Z,18.70
2019-03-28T17:31:03.321Z,17.45
2019-03-28T17:33:35.462Z,18.42
2019-03-28T17:36:07.354Z,15.10
2019-03-28T17:38:39.195Z,17.25
2019-03-28T17:41:11.161Z,16.87
2019-03-28T17:43:42.909Z,17.67
2019-03-28T17:46:14.687Z,17.77
2019-03-28T17:48:46.356Z,16.48
2019-03-28T17:51:18.211Z,23.75
2019-03-28T17:53:49.945Z,19.62
2019-03-28T17:56:21.797Z,17.55
2019-03-28T17:58:54.080Z,17.32
2019-03-28T18:01:26.146Z,19.40
2019-03-28T18:03:57.929Z,20.37
2019-03-28T18:06:29.682Z,22.25
2019-03-28T18:09:01.325Z,20.17
2019-03-28T18:11:33.323Z,16.55
2019-03-28T18:14:04.961Z,18.65
2019-03-28T18:16:37.321Z,19.30
2019-03-28T18:19:09.387Z,21.37
2019-03-28T18:21:41.761Z,17.65
2019-03-28T18:24:13.825Z,17.25
2019-03-28T18:26:45.718Z,16.50
2019-03-28T18:29:19.225Z,19.10
2019-03-28T18:31:52.566Z,18.73
2019-03-28T18:34:23.765Z,15.58
2019-03-28T18:36:55.683Z,17.42
2019-03-28T18:39:27.386Z,17.45
2019-03-28T18:41:59.831Z,17.45
2019-03-28T18:44:31.497Z,15.18
2019-03-28T18:47:03.350Z,18.42
2019-03-28T18:49:34.921Z,19.12
2019-03-28T18:52:07.531Z,16.23
2019-03-28T18:54:39.350Z,15.88
2019-03-28T18:57:11.100Z,19.32
2019-03-28T18:59:42.896Z,18.85
2019-03-28T19:02:14.646Z,17.85
2019-03-28T19:04:46.481Z,21.82
2019-03-28T19:07:18.037Z,21.37
2019-03-28T19:09:50.108Z,16.77
2019-03-28T19:12:22.147Z,20.75
2019-03-28T19:14:53.978Z,16.97
2019-03-28T19:17:25.612Z,18.35
2019-03-28T19:19:59.587Z,19.87
2019-03-28T19:22:30.940Z,22.87
2019-03-28T19:25:02.953Z,17.37
2019-03-28T19:27:34.687Z,21.37
2019-03-28T19:30:07.257Z,22.13
2019-03-28T19:32:39.527Z,22.15
2019-03-28T19:35:12.226Z,16.25
2019-03-28T19:37:43.993Z,18.42
2019-03-28T19:40:16.645Z,21.60
2019-03-28T19:42:48.430Z,18.02
2019-03-28T19:45:22.722Z,21.10
2019-03-28T19:47:54.395Z,20.65
2019-03-28T19:50:32.496Z,18.37
2019-03-28T19:53:04.086Z,19.92
2019-03-28T19:55:35.921Z,19.30
2019-03-28T19:58:08.385Z,21.30
2019-03-28T20:00:58.926Z,19.52
2019-03-28T20:03:30.755Z,20.72
2019-03-28T20:06:02.608Z,23.83
2019-03-28T20:08:34.281Z,16.85
2019-03-28T20:11:06.372Z,17.92
2019-03-28T20:13:38.367Z,17.00
2019-03-28T20:16:10.258Z,20.25
2019-03-28T20:18:43.041Z,22.40
2019-03-28T20:21:15.249Z,19.32
2019-03-28T20:23:46.966Z,21.87
2019-03-28T20:26:20.006Z,20.20
2019-03-28T20:28:52.007Z,22.30
2019-03-28T20:31:23.687Z,22.07
2019-03-28T20:33:55.457Z,23.65
2019-03-28T20:36:37.587Z,21.85
2019-03-28T20:39:04.225Z,19.42
2019-03-28T20:41:33.268Z,20.23
2019-03-28T20:44:05.131Z,23.62
2019-03-28T20:46:36.906Z,20.45
2019-03-28T20:49:09.159Z,21.97
2019-03-28T20:51:41.342Z,25.32
2019-03-28T20:54:13.217Z,20.70
2019-03-28T20:56:44.922Z,23.67
2019-03-28T20:59:16.527Z,21.45
2019-03-28T21:01:48.686Z,20.90
2019-03-28T21:04:30.787Z,18.15
2019-03-28T21:06:53.947Z,21.10
2019-03-28T21:09:25.605Z,19.75
2019-03-28T21:11:57.668Z,20.50
2019-03-28T21:14:29.876Z,19.75
2019-03-28T21:17:01.484Z,21.55
2019-03-28T21:19:33.289Z,19.82
2019-03-28T21:22:05.913Z,23.35
2019-03-28T21:24:38.027Z,24.27
2019-03-28T21:27:10.264Z,20.72
2019-03-28T21:29:48.660Z,21.25
2019-03-28T21:32:14.919Z,20.65
2019-03-28T21:34:46.959Z,18.90
2019-03-28T21:37:19.035Z,20.10
2019-03-28T21:39:50.815Z,16.52
2019-03-28T21:42:22.578Z,19.60
2019-03-28T21:44:54.336Z,19.60
2019-03-28T21:47:25.993Z,20.60
2019-03-28T21:49:57.828Z,19.07
2019-03-28T21:52:29.590Z,18.60
2019-03-28T21:55:01.360Z,23.02
2019-03-28T21:57:33.031Z,23.52
2019-03-28T22:00:04.799Z,18.70
2019-03-28T22:02:36.554Z,19.95
2019-03-28T22:05:08.828Z,21.52
2019-03-28T22:07:41.114Z,19.57
2019-03-28T22:10:12.739Z,20.05
2019-03-28T22:12:44.314Z,21.42
2019-03-28T22:18:39.525Z,19.33
2019-03-28T22:21:11.612Z,19.45
2019-03-28T22:24:02.415Z,22.35
2019-03-28T22:26:34.278Z,20.40
2019-03-28T22:29:06.423Z,18.52
2019-03-28T22:31:38.132Z,19.85
2019-03-28T22:34:25.317Z,20.30
2019-03-28T22:36:59.423Z,19.57
2019-03-28T22:39:30.288Z,22.95
2019-03-28T22:42:02.149Z,22.10
2019-03-28T22:44:55.062Z,18.40
2019-03-28T22:47:26.866Z,21.73
2019-03-28T22:49:58.396Z,20.50
2019-03-28T22:52:30.177Z,26.73
2019-03-28T22:55:02.010Z,19.17
2019-03-28T22:57:33.907Z,18.42
2019-03-28T23:00:07.089Z,18.77
2019-03-28T23:02:38.862Z,21.02
2019-03-28T23:05:11.623Z,19.82
2019-03-28T23:07:43.997Z,26.62
2019-03-28T23:10:16.971Z,21.52
2019-03-28T23:12:49.268Z,20.70
2019-03-28T23:15:22.096Z,22.35
2019-03-28T23:17:54.418Z,24.10
2019-03-28T23:20:26.172Z,20.52
2019-03-28T23:22:57.705Z,20.68
2019-03-28T23:25:29.998Z,20.55
2019-03-28T23:28:01.872Z,23.18
2019-03-28T23:30:34.439Z,19.30
2019-03-28T23:33:07.310Z,20.88
2019-03-28T23:35:39.012Z,20.37
2019-03-28T23:38:11.050Z,22.55
2019-03-28T23:41:01.786Z,23.83
2019-03-28T23:43:33.455Z,23.30
2019-03-28T23:46:05.203Z,21.85
2019-03-28T23:48:37.154Z,19.82
2019-03-28T23:51:08.920Z,20.65
2019-03-28T23:54:00.247Z,18.82
2019-03-28T23:56:33.012Z,20.02
2019-03-28T23:59:06.122Z,20.15
